createdAt,value
2018-03-07T00:00:27.642Z,978.74
2018-03-07T00:01:26.971Z,978.74
2018-03-07T00:02:33.414Z,978.72
2018-03-07T00:03:28.950Z,978.70
2018-03-07T00:06:08.664Z,978.71
2018-03-07T00:07:00.040Z,978.71
2018-03-07T00:08:01.407Z,978.74
2018-03-07T00:12:02.441Z,978.73
2018-03-07T00:13:19.078Z,978.73
2018-03-07T00:15:44.218Z,978.71
2018-03-07T00:16:49.874Z,978.72
2018-03-07T00:17:45.787Z,978.64
2018-03-07T00:18:45.784Z,978.72
2018-03-07T00:21:29.998Z,978.65
2018-03-07T00:22:29.971Z,978.63
2018-03-07T00:23:33.172Z,978.65
2018-03-07T00:24:31.787Z,978.60
2018-03-07T00:25:29.859Z,978.64
2018-03-07T00:28:28.514Z,978.65
2018-03-07T00:29:28.425Z,978.64
2018-03-07T00:33:35.641Z,978.67
2018-03-07T00:34:36.194Z,978.70
2018-03-07T00:35:43.580Z,978.68
2018-03-07T00:36:35.565Z,978.70
2018-03-07T00:37:43.629Z,978.67
2018-03-07T00:38:35.523Z,978.67
2018-03-07T00:39:35.492Z,978.66
2018-03-07T00:40:37.178Z,978.71
2018-03-07T00:43:21.301Z,978.62
2018-03-07T00:46:05.256Z,978.66
2018-03-07T00:46:35.697Z,978.65
2018-03-07T00:47:37.910Z,978.66
2018-03-07T00:48:43.998Z,978.62
2018-03-07T00:51:48.043Z,978.64
2018-03-07T00:52:47.993Z,978.61
2018-03-07T00:53:47.948Z,978.61
2018-03-07T00:54:50.071Z,978.58
2018-03-07T00:55:49.988Z,978.60
2018-03-07T00:59:35.141Z,978.54
2018-03-07T01:00:34.460Z,978.55
2018-03-07T01:01:26.872Z,978.57
2018-03-07T01:02:37.151Z,978.56
2018-03-07T01:03:34.461Z,978.59
2018-03-07T01:04:55.333Z,978.59
2018-03-07T01:05:26.383Z,978.57
2018-03-07T01:08:53.969Z,978.60
2018-03-07T01:10:45.405Z,978.62
2018-03-07T01:11:45.402Z,978.63
2018-03-07T01:12:45.438Z,978.61
2018-03-07T01:13:45.422Z,978.62
2018-03-07T01:14:45.343Z,978.59
2018-03-07T01:15:45.341Z,978.62
2018-03-07T01:16:45.308Z,978.60
2018-03-07T01:17:45.317Z,978.58
2018-03-07T01:18:46.022Z,978.54
2018-03-07T01:24:29.361Z,978.58
2018-03-07T01:25:29.415Z,978.56
2018-03-07T01:26:29.466Z,978.55
2018-03-07T01:30:58.117Z,978.55
2018-03-07T01:31:20.246Z,978.57
2018-03-07T01:32:20.252Z,978.58
2018-03-07T01:33:20.254Z,978.57
2018-03-07T01:34:20.118Z,978.60
2018-03-07T01:38:11.018Z,978.60
2018-03-07T01:39:10.946Z,978.55
2018-03-07T01:40:12.105Z,978.57
2018-03-07T01:41:10.866Z,978.59
2018-03-07T01:42:10.888Z,978.58
2018-03-07T01:47:48.292Z,978.61
2018-03-07T01:50:31.791Z,978.64
2018-03-07T01:51:31.751Z,978.64
2018-03-07T01:52:31.811Z,978.61
2018-03-07T01:53:39.741Z,978.60
2018-03-07T01:54:31.754Z,978.58
2018-03-07T01:55:31.712Z,978.61
2018-03-07T01:56:31.749Z,978.57
2018-03-07T01:57:31.700Z,978.56
2018-03-07T01:58:31.715Z,978.57
2018-03-07T01:59:43.329Z,978.52
2018-03-07T02:00:39.707Z,978.52
2018-03-07T02:01:37.064Z,978.50
2018-03-07T02:02:31.557Z,978.49
2018-03-07T02:03:33.656Z,978.49
2018-03-07T02:06:04.691Z,978.45
2018-03-07T02:07:04.650Z,978.46
2018-03-07T02:08:04.616Z,978.45
2018-03-07T02:09:04.555Z,978.44
2018-03-07T02:11:31.133Z,978.43
2018-03-07T02:12:04.488Z,978.45
2018-03-07T02:13:08.840Z,978.42
2018-03-07T02:19:57.541Z,978.34
2018-03-07T02:24:53.928Z,978.46
2018-03-07T02:27:36.705Z,978.45
2018-03-07T02:29:02.615Z,978.42
2018-03-07T02:31:23.378Z,978.43
2018-03-07T02:32:10.736Z,978.44
2018-03-07T02:33:23.395Z,978.45
2018-03-07T02:34:10.696Z,978.42
2018-03-07T02:35:10.724Z,978.48
2018-03-07T02:37:56.208Z,978.48
2018-03-07T02:38:56.207Z,978.44
2018-03-07T02:40:51.427Z,978.45
2018-03-07T02:41:51.385Z,978.47
2018-03-07T02:42:51.302Z,978.50
2018-03-07T02:48:08.872Z,978.50
2018-03-07T02:49:06.571Z,978.45
2018-03-07T02:50:04.541Z,978.42
2018-03-07T02:51:06.433Z,978.41
2018-03-07T02:52:04.433Z,978.49
2018-03-07T02:53:04.378Z,978.47
2018-03-07T02:54:04.380Z,978.46
2018-03-07T02:55:08.268Z,978.47
2018-03-07T02:56:07.935Z,978.49
2018-03-07T02:57:06.110Z,978.51
2018-03-07T02:58:04.289Z,978.51
2018-03-07T02:59:05.746Z,978.52
2018-03-07T03:00:16.073Z,978.47
2018-03-07T03:01:04.263Z,978.49
2018-03-07T03:02:04.122Z,978.54
2018-03-07T03:03:05.707Z,978.50
2018-03-07T03:04:06.148Z,978.51
2018-03-07T03:05:04.768Z,978.47
2018-03-07T03:06:04.141Z,978.48
2018-03-07T03:07:04.053Z,978.53
2018-03-07T03:08:04.003Z,978.52
2018-03-07T03:09:08.009Z,978.57
2018-03-07T03:10:05.672Z,978.54
2018-03-07T03:11:04.052Z,978.54
2018-03-07T03:12:06.474Z,978.54
2018-03-07T03:13:07.684Z,978.54
2018-03-07T03:14:05.706Z,978.56
2018-03-07T03:15:03.964Z,978.57
2018-03-07T03:16:05.035Z,978.55
2018-03-07T03:17:04.255Z,978.52
2018-03-07T03:18:03.848Z,978.53
2018-03-07T03:19:03.888Z,978.54
2018-03-07T03:20:03.893Z,978.52
2018-03-07T03:21:05.139Z,978.49
2018-03-07T03:22:05.665Z,978.49
2018-03-07T03:23:03.551Z,978.50
2018-03-07T03:24:03.706Z,978.53
2018-03-07T03:25:03.751Z,978.51
2018-03-07T03:26:04.649Z,978.49
2018-03-07T03:27:03.668Z,978.51
2018-03-07T03:28:04.307Z,978.51
2018-03-07T03:29:05.075Z,978.52
2018-03-07T03:30:03.658Z,978.52
2018-03-07T03:31:03.603Z,978.53
2018-03-07T03:32:09.958Z,978.55
2018-03-07T03:33:05.409Z,978.55
2018-03-07T03:34:05.916Z,978.52
2018-03-07T03:35:03.696Z,978.55
2018-03-07T03:36:03.249Z,978.53
2018-03-07T03:37:02.975Z,978.55
2018-03-07T03:38:06.012Z,978.56
2018-03-07T03:39:02.769Z,978.57
2018-03-07T03:40:02.884Z,978.57
2018-03-07T03:41:03.356Z,978.56
2018-03-07T03:42:02.780Z,978.57
2018-03-07T03:43:02.641Z,978.58
2018-03-07T03:44:02.655Z,978.61
2018-03-07T03:45:03.500Z,978.59
2018-03-07T03:46:04.505Z,978.61
2018-03-07T03:47:03.326Z,978.59
2018-03-07T03:48:03.355Z,978.62
2018-03-07T03:49:04.514Z,978.61
2018-03-07T03:50:02.556Z,978.63
2018-03-07T03:51:02.531Z,978.62
2018-03-07T03:52:02.620Z,978.64
2018-03-07T03:53:04.809Z,978.65
2018-03-07T03:54:02.508Z,978.65
2018-03-07T03:55:02.510Z,978.62
2018-03-07T03:56:02.390Z,978.60
2018-03-07T03:57:02.306Z,978.61
2018-03-07T03:58:02.304Z,978.61
2018-03-07T03:59:04.920Z,978.61
2018-03-07T04:00:05.233Z,978.61
2018-03-07T04:01:02.286Z,978.61
2018-03-07T04:02:02.227Z,978.60
2018-03-07T04:03:02.323Z,978.59
2018-03-07T04:04:02.200Z,978.56
2018-03-07T04:05:02.257Z,978.57
2018-03-07T04:06:02.151Z,978.53
2018-03-07T04:07:02.137Z,978.55
2018-03-07T04:08:02.117Z,978.56
2018-03-07T04:09:02.095Z,978.55
2018-03-07T04:10:02.754Z,978.57
2018-03-07T04:11:25.139Z,978.57
2018-03-07T04:12:02.080Z,978.59
2018-03-07T04:13:02.034Z,978.62
2018-03-07T04:14:01.981Z,978.64
2018-03-07T04:15:02.534Z,978.55
2018-03-07T04:16:01.909Z,978.56
2018-03-07T04:17:02.950Z,978.60
2018-03-07T04:18:02.051Z,978.58
2018-03-07T04:19:01.828Z,978.60
2018-03-07T04:20:01.920Z,978.59
2018-03-07T04:21:01.818Z,978.60
2018-03-07T04:22:01.801Z,978.61
2018-03-07T04:23:01.785Z,978.61
2018-03-07T04:24:01.749Z,978.63
2018-03-07T04:25:01.801Z,978.61
2018-03-07T04:26:01.706Z,978.63
2018-03-07T04:27:02.448Z,978.60
2018-03-07T04:28:02.460Z,978.62
2018-03-07T04:29:01.656Z,978.60
2018-03-07T04:30:01.606Z,978.63
2018-03-07T04:31:01.628Z,978.61
2018-03-07T04:32:02.261Z,978.61
2018-03-07T04:33:01.526Z,978.60
2018-03-07T04:34:01.623Z,978.64
2018-03-07T04:35:01.522Z,978.57
2018-03-07T04:36:01.488Z,978.61
2018-03-07T04:37:01.452Z,978.58
2018-03-07T04:38:01.705Z,978.60
2018-03-07T04:39:02.195Z,978.56
2018-03-07T04:40:01.419Z,978.59
2018-03-07T04:41:01.374Z,978.61
2018-03-07T04:42:01.411Z,978.63
2018-03-07T04:43:01.924Z,978.62
2018-03-07T04:44:01.249Z,978.58
2018-03-07T04:45:01.229Z,978.62
2018-03-07T04:46:01.293Z,978.60
2018-03-07T04:47:01.188Z,978.60
2018-03-07T04:48:01.188Z,978.61
2018-03-07T04:49:01.206Z,978.64
2018-03-07T04:50:01.234Z,978.64
2018-03-07T04:51:01.158Z,978.62
2018-03-07T04:52:02.417Z,978.59
2018-03-07T04:53:01.344Z,978.64
2018-03-07T04:54:02.195Z,978.61
2018-03-07T04:55:02.169Z,978.63
2018-03-07T04:56:01.047Z,978.63
2018-03-07T04:57:01.010Z,978.64
2018-03-07T04:58:02.346Z,978.63
2018-03-07T04:59:00.963Z,978.65
2018-03-07T05:00:00.921Z,978.68
2018-03-07T05:01:00.963Z,978.67
2018-03-07T05:02:01.455Z,978.68
2018-03-07T05:03:00.838Z,978.65
2018-03-07T05:04:01.818Z,978.68
2018-03-07T05:05:01.355Z,978.67
2018-03-07T05:06:00.761Z,978.66
2018-03-07T05:07:00.844Z,978.67
2018-03-07T05:08:01.208Z,978.66
2018-03-07T05:09:00.753Z,978.64
2018-03-07T05:10:00.776Z,978.66
2018-03-07T05:11:00.650Z,978.63
2018-03-07T05:12:00.710Z,978.67
2018-03-07T05:13:00.658Z,978.67
2018-03-07T05:14:01.099Z,978.66
2018-03-07T05:15:01.202Z,978.64
2018-03-07T05:16:01.085Z,978.68
2018-03-07T05:17:00.545Z,978.68
2018-03-07T05:18:00.488Z,978.66
2018-03-07T05:19:00.520Z,978.64
2018-03-07T05:20:01.125Z,978.69
2018-03-07T05:21:00.422Z,978.66
2018-03-07T05:22:00.444Z,978.68
2018-03-07T05:23:01.354Z,978.66
2018-03-07T05:24:00.437Z,978.69
2018-03-07T05:25:01.526Z,978.69
2018-03-07T05:26:00.309Z,978.67
2018-03-07T05:27:00.338Z,978.74
2018-03-07T05:28:00.345Z,978.72
2018-03-07T05:29:00.337Z,978.73
2018-03-07T05:30:01.727Z,978.73
2018-03-07T05:31:00.217Z,978.78
2018-03-07T05:32:00.256Z,978.74
2018-03-07T05:33:00.950Z,978.73
2018-03-07T05:34:00.214Z,978.70
2018-03-07T05:35:00.126Z,978.73
2018-03-07T05:36:01.482Z,978.74
2018-03-07T05:37:02.004Z,978.73
2018-03-07T05:38:00.074Z,978.77
2018-03-07T05:39:00.100Z,978.76
2018-03-07T05:40:00.025Z,978.76
2018-03-07T05:41:00.134Z,978.75
2018-03-07T05:41:59.990Z,978.77
2018-03-07T05:43:00.824Z,978.76
2018-03-07T05:43:59.959Z,978.75
2018-03-07T05:44:59.892Z,978.74
2018-03-07T05:46:00.414Z,978.73
2018-03-07T05:46:59.864Z,978.73
2018-03-07T05:47:59.842Z,978.74
2018-03-07T05:48:59.841Z,978.74
2018-03-07T05:50:03.678Z,978.75
2018-03-07T05:51:02.891Z,978.75
2018-03-07T05:51:59.795Z,978.75
2018-03-07T05:52:59.736Z,978.76
2018-03-07T05:53:59.710Z,978.76
2018-03-07T05:54:59.649Z,978.75
2018-03-07T05:57:24.357Z,978.76
2018-03-07T05:58:24.982Z,978.82
2018-03-07T05:59:24.238Z,978.81
2018-03-07T06:00:24.228Z,978.82
2018-03-07T06:01:24.145Z,978.84
2018-03-07T06:02:24.173Z,978.90
2018-03-07T06:03:24.154Z,978.88
2018-03-07T06:04:24.832Z,978.88
2018-03-07T06:05:33.834Z,978.89
2018-03-07T06:07:19.302Z,978.88
2018-03-07T06:09:41.383Z,978.89
2018-03-07T06:10:41.425Z,978.86
2018-03-07T07:09:45.219Z,979.23
2018-03-07T07:10:44.475Z,979.27
2018-03-07T07:11:44.164Z,979.27
2018-03-07T07:12:44.412Z,979.26
2018-03-07T07:13:44.201Z,979.25
2018-03-07T07:14:45.082Z,979.28
2018-03-07T07:15:44.648Z,979.25
2018-03-07T07:16:45.018Z,979.30
2018-03-07T07:17:43.860Z,979.28
2018-03-07T07:18:43.650Z,979.32
2018-03-07T07:19:43.568Z,979.30
2018-03-07T07:20:43.582Z,979.31
2018-03-07T07:21:43.672Z,979.33
2018-03-07T07:22:43.660Z,979.32
2018-03-07T07:23:43.587Z,979.30
2018-03-07T07:24:43.579Z,979.29
2018-03-07T07:25:43.459Z,979.31
2018-03-07T07:26:43.482Z,979.28
2018-03-07T07:27:43.453Z,979.30
2018-03-07T07:28:43.421Z,979.31
2018-03-07T07:29:43.341Z,979.31
2018-03-07T07:30:43.445Z,979.31
2018-03-07T07:31:43.385Z,979.30
2018-03-07T07:32:43.356Z,979.31
2018-03-07T07:33:43.316Z,979.33
2018-03-07T07:34:43.297Z,979.37
2018-03-07T07:35:43.311Z,979.38
2018-03-07T07:36:43.244Z,979.39
2018-03-07T07:37:43.207Z,979.43
2018-03-07T07:38:43.638Z,979.40
2018-03-07T07:39:43.188Z,979.42
2018-03-07T07:40:43.196Z,979.44
2018-03-07T07:41:43.143Z,979.48
2018-03-07T07:42:43.076Z,979.48
2018-03-07T07:43:43.142Z,979.43
2018-03-07T07:44:43.050Z,979.49
2018-03-07T07:45:43.034Z,979.47
2018-03-07T07:46:42.988Z,979.41
2018-03-07T07:47:42.982Z,979.40
2018-03-07T07:48:43.004Z,979.40
2018-03-07T07:49:42.930Z,979.39
2018-03-07T07:50:43.069Z,979.34
2018-03-07T07:51:53.060Z,979.38
2018-03-07T11:12:20.440Z,980.67
2018-03-07T11:14:44.215Z,980.73
2018-03-07T11:15:44.106Z,980.68
2018-03-07T11:18:07.542Z,980.72
2018-03-07T11:20:40.772Z,980.76
2018-03-07T11:21:30.281Z,980.74
2018-03-07T11:23:53.810Z,980.75
2018-03-07T11:24:53.082Z,980.79
2018-03-07T11:25:53.151Z,980.76
2018-03-07T11:28:16.748Z,980.79
2018-03-07T11:29:16.066Z,980.78
2018-03-07T11:31:38.645Z,980.77
2018-03-07T11:34:01.388Z,980.72
2018-03-07T11:36:24.186Z,980.73
2018-03-07T11:38:49.104Z,980.75
2018-03-07T11:41:12.033Z,980.76
2018-03-07T11:43:35.163Z,980.73
2018-03-07T11:44:35.041Z,980.74
2018-03-07T11:45:35.373Z,980.75
2018-03-07T11:47:58.391Z,980.73
2018-03-07T11:49:08.267Z,980.75
2018-03-07T11:50:52.840Z,980.72
2018-03-07T11:51:52.319Z,980.74
2018-03-07T11:54:15.851Z,980.76
2018-03-07T11:56:38.895Z,980.76
2018-03-07T11:59:01.536Z,980.76
2018-03-07T12:00:02.281Z,980.79
2018-03-07T12:01:02.104Z,980.79
2018-03-07T12:02:01.869Z,980.78
2018-03-07T12:03:02.160Z,980.74
2018-03-07T12:04:03.444Z,980.75
2018-03-07T12:06:24.582Z,980.74
2018-03-07T12:08:48.164Z,980.80
2018-03-07T12:09:48.227Z,980.79
2018-03-07T12:10:47.865Z,980.80
2018-03-07T12:13:10.662Z,980.85
2018-03-07T12:14:19.289Z,980.87
2018-03-07T12:16:05.986Z,980.87
2018-03-07T12:17:06.157Z,980.90
2018-03-07T12:19:30.502Z,980.87
2018-03-07T12:21:51.230Z,980.84
2018-03-07T12:22:51.556Z,980.87
2018-03-07T12:25:15.739Z,980.87
2018-03-07T12:27:39.384Z,980.83
2018-03-07T12:30:02.493Z,980.83
2018-03-07T12:32:25.731Z,980.78
2018-03-07T12:33:25.128Z,980.76
2018-03-07T12:35:49.318Z,980.77
2018-03-07T12:38:13.356Z,980.76
2018-03-07T12:40:36.824Z,980.72
2018-03-07T12:43:01.128Z,980.71
2018-03-07T12:45:22.719Z,980.67
2018-03-07T12:47:45.770Z,980.70
2018-03-07T12:50:07.492Z,980.66
2018-03-07T12:52:29.572Z,980.72
2018-03-07T12:54:54.996Z,980.74
2018-03-07T12:55:54.358Z,980.73
2018-03-07T12:57:04.222Z,980.76
2018-03-07T12:59:17.402Z,980.75
2018-03-07T13:01:40.555Z,980.78
2018-03-07T13:02:51.702Z,980.73
2018-03-07T13:04:34.545Z,980.77
2018-03-07T13:06:57.520Z,980.74
2018-03-07T13:08:07.264Z,980.77
2018-03-07T13:09:53.896Z,980.75
2018-03-07T13:12:16.186Z,980.76
2018-03-07T13:14:40.254Z,980.80
2018-03-07T13:15:39.177Z,980.83
2018-03-07T13:16:47.479Z,980.81
2018-03-07T13:19:02.446Z,980.80
2018-03-07T13:20:02.520Z,980.83
2018-03-07T13:21:02.019Z,980.81
2018-03-07T13:23:25.487Z,980.83
2018-03-07T13:25:48.207Z,980.83
2018-03-07T13:28:11.860Z,980.82
2018-03-07T13:30:36.290Z,980.82
2018-03-07T13:32:59.455Z,980.84
2018-03-07T13:35:22.713Z,980.83
2018-03-07T13:36:30.705Z,980.86
2018-03-07T13:37:23.012Z,980.88
2018-03-07T13:40:00.256Z,980.81
2018-03-07T13:41:01.397Z,980.82
2018-03-07T13:42:58.501Z,980.86
2018-03-07T13:45:20.924Z,980.82
2018-03-07T13:46:20.874Z,980.85
2018-03-07T13:48:43.624Z,980.82
2018-03-07T16:16:49.099Z,981.23
2018-03-07T16:19:12.643Z,981.21
2018-03-07T16:20:13.332Z,981.23
2018-03-07T16:21:12.038Z,981.28
2018-03-07T16:23:35.116Z,981.26
2018-03-07T16:26:05.581Z,981.27
2018-03-07T16:28:32.784Z,981.33
2018-03-07T16:30:57.157Z,981.31
2018-03-07T16:33:19.008Z,981.32
2018-03-07T16:34:28.076Z,981.30
2018-03-07T16:35:19.035Z,981.33
2018-03-07T16:36:27.795Z,981.36
2018-03-07T16:38:15.097Z,981.32
2018-03-07T16:40:38.307Z,981.34
2018-03-07T16:41:48.339Z,981.34
